Decoded Metar for KDNL (AUGUSTA/DANIEL in GA, USA) (IATA:DNL) | Meteo·Mobile Aviation Weather
aviador You're here:

KDNL Decoded Metar

AUGUSTA/DANIEL in GA, USA
Report Time2018-10-20 11:53:00
UTC Time2018-10-20 12:37:02
Flight Rules vfr VFR
Wind220° at 05 kt
W.Decomp.*RWY 23: 5.0 kt HW 0.5 kt LCW
RWY 29: 2.0 kt HW 4.6 kt LCW
W.Rank220° ranks 3
Current wind is below 220° avg. (5.7)
Visibility9999 m
Phenomena:N/A
Clouds:Few 080 Hf
Expected CloudBase > 1,200 ft AGL from Temp-Dew spread
CeilingNone
Temp20°C (ISA +6)
Dew Point17°C (83% RH)
QNH1016 hPa
Density Alt1,270 ft
Elevation427 ft
Report Wrong Elevation
Raw Report
METAR KDNL 201153Z AUTO 22005KT 10SM FEW080 20/17 A3000 RMK AO2 SLP155
T02000172 10206 20194 56009=

Extra information for KDNL:More info

Metar Taf Metar & Taf Last 4 Metars F.Rules Stats Wind Profile Meteogram Temp Stats Airport Information Weather charts Add Link Nearby VenuesMetar ALERT Operation Metar Decoded Social comments

AIRNAV info for KDNL